Banda Sea — D5CS3 — position and weather

sailwx.info

Track history (hours):
 
Tides and Currents Weather Stations Pressure Air Temp Water Temp Dewpoint Dewpoint Depression Visibility Wind Speed Wind Dir Waves Ship Positions

Banda Sea

Last reported at 2018-Apr-23 03:21 UTC. Time now 2018-Apr-23 13:29 UTC.
Position N 20°01' E 067°40'.

Length 238 m; draft 8 m.

Type: Ship. MMSI: 636015767.

Date/timePositionNaut miles runAvg speedWind from/ knotsBaromVisibWave heightAir tempDewpointWater temp
2018-Apr-23 03:21N 20°01' E 067°40'513.9
2018-Apr-23 03:00N 20°03' E 067°45'9 8.9
2018-Apr-23 01:56N 20°07' E 067°54'1 1.2
2018-Apr-23 00:45N 20°09' E 067°54'0 1.2
2018-Apr-23 00:22N 20°09' E 067°54'9 1.1
2018-Apr-22 16:16N 20°18' E 067°52'0 1.0
2018-Apr-22 15:48N 20°18' E 067°52'0 0.9
2018-Apr-22 15:21N 20°19' E 067°52'16 0.9
2018-Apr-21 21:41N 20°34' E 067°48'3 0.7
2018-Apr-21 17:49N 20°35' E 067°45'0 0.7
2018-Apr-21 17:30N 20°36' E 067°45'1 0.7
2018-Apr-21 16:27N 20°36' E 067°45'25 2.1
2018-Apr-21 04:26N 21°01' E 067°52'0 0.7
2018-Apr-21 03:59N 21°01' E 067°52'1 0.7
2018-Apr-21 03:03N 21°01' E 067°51'0 0.8
2018-Apr-21 02:58N 21°01' E 067°51'2 0.8
2018-Apr-21 00:18N 21°01' E 067°49'0 0.8
2018-Apr-21 00:00N 21°01' E 067°48'8 1.1
2018-Apr-20 16:29N 21°00' E 067°39'29 2.3
2018-Apr-20 03:35N 20°41' E 068°03'0 1.2
2018-Apr-20 03:30N 20°41' E 068°03'1 1.1
2018-Apr-20 03:00N 20°41' E 068°02'1 1.0
2018-Apr-20 02:30N 20°41' E 068°02'1 1.0
2018-Apr-20 01:53N 20°42' E 068°01'0 1.0
2018-Apr-20 01:28N 20°42' E 068°01'2 1.1
2018-Apr-19 23:45N 20°42' E 067°59'1 1.1
2018-Apr-19 22:39N 20°42' E 067°57'0 1.4
2018-Apr-19 22:30N 20°42' E 067°57'  
2018-Apr-17 01:56N 21°46' E 067°43'126 5.6
2018-Apr-16 03:19N 22°30' E 069°50'0 0.0
2018-Apr-14 22:43N 22°30' E 069°50'0 0.0
2018-Apr-14 22:25N 22°30' E 069°50'0 0.0
2018-Apr-14 21:49N 22°30' E 069°50'0 0.0
2018-Apr-14 21:13N 22°30' E 069°50'0 0.0
2018-Apr-14 20:43N 22°30' E 069°50'0 0.0
2018-Apr-13 23:37N 22°30' E 069°50'0 0.0
2018-Apr-13 23:19N 22°30' E 069°50'11 0.6
2018-Apr-13 04:18N 22°40' E 069°55'2 6.2
2018-Apr-13 04:00N 22°40' E 069°57'  
Track history (hours):
 
Tides and Currents Weather Stations Pressure Air Temp Water Temp Dewpoint Dewpoint Depression Visibility Wind Speed Wind Dir Waves Ship Positions

Banda Sea

Last reported at 2018-Apr-23 03:21 UTC. Time now 2018-Apr-23 13:29 UTC.
Position N 20°01' E 067°40'.

Length 238 m; draft 8 m.

Type: Ship. MMSI: 636015767.

Date/timePositionNaut miles runAvg speedWind from/ knotsBaromVisibWave heightAir tempDewpointWater temp
2018-Apr-23 03:21N 20°01' E 067°40'513.9
2018-Apr-23 03:00N 20°03' E 067°45'9 8.9
2018-Apr-23 01:56N 20°07' E 067°54'1 1.2
2018-Apr-23 00:45N 20°09' E 067°54'0 1.2
2018-Apr-23 00:22N 20°09' E 067°54'9 1.1
2018-Apr-22 16:16N 20°18' E 067°52'0 1.0
2018-Apr-22 15:48N 20°18' E 067°52'0 0.9
2018-Apr-22 15:21N 20°19' E 067°52'16 0.9
2018-Apr-21 21:41N 20°34' E 067°48'3 0.7
2018-Apr-21 17:49N 20°35' E 067°45'0 0.7
2018-Apr-21 17:30N 20°36' E 067°45'1 0.7
2018-Apr-21 16:27N 20°36' E 067°45'25 2.1
2018-Apr-21 04:26N 21°01' E 067°52'0 0.7
2018-Apr-21 03:59N 21°01' E 067°52'1 0.7
2018-Apr-21 03:03N 21°01' E 067°51'0 0.8
2018-Apr-21 02:58N 21°01' E 067°51'2 0.8
2018-Apr-21 00:18N 21°01' E 067°49'0 0.8
2018-Apr-21 00:00N 21°01' E 067°48'8 1.1
2018-Apr-20 16:29N 21°00' E 067°39'29 2.3
2018-Apr-20 03:35N 20°41' E 068°03'0 1.2
2018-Apr-20 03:30N 20°41' E 068°03'1 1.1
2018-Apr-20 03:00N 20°41' E 068°02'1 1.0
2018-Apr-20 02:30N 20°41' E 068°02'1 1.0
2018-Apr-20 01:53N 20°42' E 068°01'0 1.0
2018-Apr-20 01:28N 20°42' E 068°01'2 1.1
2018-Apr-19 23:45N 20°42' E 067°59'1 1.1
2018-Apr-19 22:39N 20°42' E 067°57'0 1.4
2018-Apr-19 22:30N 20°42' E 067°57'  
2018-Apr-17 01:56N 21°46' E 067°43'126 5.6
2018-Apr-16 03:19N 22°30' E 069°50'0 0.0
2018-Apr-14 22:43N 22°30' E 069°50'0 0.0
2018-Apr-14 22:25N 22°30' E 069°50'0 0.0
2018-Apr-14 21:49N 22°30' E 069°50'0 0.0
2018-Apr-14 21:13N 22°30' E 069°50'0 0.0
2018-Apr-14 20:43N 22°30' E 069°50'0 0.0
2018-Apr-13 23:37N 22°30' E 069°50'0 0.0
2018-Apr-13 23:19N 22°30' E 069°50'11 0.6
2018-Apr-13 04:18N 22°40' E 069°55'2 6.2
2018-Apr-13 04:00N 22°40' E 069°57'  

Dump ship's entire track history